Time;durP1;ratioP1;P1;durP2;ratioP2;P2;SDS_P1;SDS_P2;PMS_P1;PMS_P2;Temp;Humidity;BMP_temperature;BMP_pressure;BME280_temperature;BME280_humidity;BME280_pressure;Samples;Min_cycle;Max_cycle;Signal;HPM_P1;HPM_P2
2021/12/13 00:01:23;;;;;;;;;;;3.90;99.90;;;;;;5053912;28;19929;-48
2021/12/13 00:03:51;;;;;;;;;;;3.90;99.90;;;;;;5069914;28;19925;-48
2021/12/13 00:06:19;;;;;;;;;;;3.90;99.90;;;;;;5035912;28;19925;-48
2021/12/13 00:08:50;;;;;;;;;;;4.00;99.90;;;;;;5037165;28;19933;-47
2021/12/13 00:11:19;;;;;;;;;;;3.90;99.90;;;;;;5053338;28;19925;-48
2021/12/13 00:13:47;;;;;;;;;;;3.80;99.90;;;;;;5053905;28;19986;-48
2021/12/13 00:16:15;;;;;;;;;;;3.90;99.90;;;;;;5055578;28;19924;-47
2021/12/13 00:18:43;;;;;;;;;;;3.90;99.90;;;;;;5054266;28;19929;-48
2021/12/13 00:21:13;;;;;;;;;;;4.00;99.90;;;;;;5054177;28;19983;-48
2021/12/13 00:23:45;;;;;;;;;;;4.00;99.90;;;;;;5054287;28;19925;-47
2021/12/13 00:26:20;;;;;;;;;;;4.00;99.90;;;;;;5054108;28;19924;-47
2021/12/13 00:28:47;;;;;;;;;;;3.90;99.90;;;;;;5053350;28;20043;-48
2021/12/13 00:31:25;;;;;;;;;;;3.70;99.90;;;;;;5064382;28;19924;-48
2021/12/13 00:34:13;;;;;;;;;;;3.80;99.90;;;;;;5073798;28;19978;-48
2021/12/13 00:36:43;;;;;;;;;;;3.90;99.90;;;;;;5074013;28;19928;-48
2021/12/13 00:39:12;;;;;;;;;;;3.90;99.90;;;;;;5057483;28;19929;-48
2021/12/13 00:41:42;;;;;;;;;;;4.00;99.90;;;;;;5053607;28;20337;-48
2021/12/13 00:44:13;;;;;;;;;;;4.00;99.90;;;;;;5054978;28;19924;-48
2021/12/13 00:46:41;;;;;;;;;;;4.00;99.90;;;;;;5073902;28;19924;-48
2021/12/13 00:49:09;;;;;;;;;;;4.00;99.90;;;;;;5067894;28;19925;-48
2021/12/13 00:51:37;;;;;;;;;;;4.00;99.90;;;;;;5053709;28;19925;-47
2021/12/13 00:54:11;;;;;;;;;;;4.00;99.90;;;;;;5053707;28;19924;-47
2021/12/13 00:56:48;;;;;;;;;;;4.00;99.90;;;;;;5053665;28;19925;-47
2021/12/13 00:59:20;;;;;;;;;;;4.00;99.90;;;;;;5054496;28;19929;-47
2021/12/13 01:01:51;;;;;;;;;;;4.10;99.90;;;;;;5053182;28;19931;-48
2021/12/13 01:04:17;;;;;;;;;;;3.90;99.90;;;;;;5053754;28;19925;-47
2021/12/13 01:07:11;;;;;;;;;;;3.60;99.90;;;;;;5053562;28;19978;-48
2021/12/13 01:10:00;;;;;;;;;;;3.60;99.90;;;;;;4986803;28;19929;-47
2021/12/13 01:12:29;;;;;;;;;;;3.80;99.90;;;;;;5039031;28;20283;-48
2021/12/13 01:14:58;;;;;;;;;;;3.80;99.90;;;;;;5053303;28;19929;-48
2021/12/13 01:17:37;;;;;;;;;;;3.90;99.90;;;;;;5053035;28;19994;-48
2021/12/13 01:20:07;;;;;;;;;;;3.90;99.90;;;;;;5052893;28;19925;-47
2021/12/13 01:22:43;;;;;;;;;;;3.80;99.90;;;;;;5052766;28;19925;-48
2021/12/13 01:25:19;;;;;;;;;;;3.90;99.90;;;;;;5053224;28;19925;-47
2021/12/13 01:27:52;;;;;;;;;;;4.00;99.90;;;;;;5061140;28;20462;-48
2021/12/13 01:30:21;;;;;;;;;;;4.00;99.90;;;;;;5052989;28;19979;-48
2021/12/13 01:32:49;;;;;;;;;;;4.00;99.90;;;;;;5052558;28;19971;-48
2021/12/13 01:35:17;;;;;;;;;;;3.80;99.90;;;;;;5052906;28;20349;-47
2021/12/13 01:37:48;;;;;;;;;;;3.80;99.90;;;;;;5052423;28;20394;-47
2021/12/13 01:40:15;;;;;;;;;;;3.80;99.90;;;;;;5055426;28;19935;-48
2021/12/13 01:42:42;;;;;;;;;;;3.90;99.90;;;;;;5072113;28;19947;-48
2021/12/13 01:45:13;;;;;;;;;;;4.00;99.90;;;;;;5072592;28;19978;-48
2021/12/13 01:47:41;;;;;;;;;;;4.00;99.90;;;;;;5067773;28;20391;-48
2021/12/13 01:50:10;;;;;;;;;;;3.90;99.90;;;;;;5051849;28;20390;-48
2021/12/13 01:52:38;;;;;;;;;;;4.00;99.90;;;;;;5052377;28;19925;-48
2021/12/13 01:55:09;;;;;;;;;;;4.00;99.90;;;;;;5052659;28;19925;-48
2021/12/13 01:57:46;;;;;;;;;;;4.00;99.90;;;;;;5052187;28;19955;-47
2021/12/13 02:00:18;;;;;;;;;;;4.10;99.90;;;;;;5052460;28;19947;-47
2021/12/13 02:02:46;;;;;;;;;;;4.00;99.90;;;;;;5052151;28;20021;-47
2021/12/13 02:05:14;;;;;;;;;;;4.00;99.90;;;;;;5052450;28;19975;-47
2021/12/13 02:07:44;;;;;;;;;;;3.90;99.90;;;;;;5052127;28;19978;-48
2021/12/13 02:10:13;;;;;;;;;;;4.00;99.90;;;;;;5070727;28;19946;-47
2021/12/13 02:12:43;;;;;;;;;;;3.90;99.90;;;;;;5071795;28;19928;-47
2021/12/13 02:17:57;;;;;;;;;;;4.00;99.90;;;;;;5066846;28;19928;-48
2021/12/13 02:20:27;;;;;;;;;;;4.10;99.90;;;;;;5052036;28;19929;-48
2021/12/13 02:22:56;;;;;;;;;;;4.00;99.90;;;;;;5050672;28;19971;-47
2021/12/13 02:25:25;;;;;;;;;;;4.00;99.90;;;;;;5051877;28;19929;-48
2021/12/13 02:27:54;;;;;;;;;;;3.90;99.90;;;;;;5051931;28;19929;-48
2021/12/13 02:30:23;;;;;;;;;;;3.90;99.90;;;;;;5051726;28;20008;-48
2021/12/13 02:32:50;;;;;;;;;;;3.90;99.90;;;;;;5052526;28;19925;-48
2021/12/13 02:35:19;;;;;;;;;;;3.90;99.90;;;;;;5051599;28;20455;-48
2021/12/13 02:37:46;;;;;;;;;;;3.90;99.90;;;;;;5063203;28;19924;-48
2021/12/13 02:40:15;;;;;;;;;;;4.00;99.90;;;;;;5051767;28;20002;-48
2021/12/13 02:42:42;;;;;;;;;;;4.10;99.90;;;;;;5051276;28;19925;-48
2021/12/13 02:45:14;;;;;;;;;;;3.80;99.90;;;;;;5051849;28;20364;-48
2021/12/13 02:47:43;;;;;;;;;;;3.60;99.90;;;;;;5051496;28;20012;-47
2021/12/13 02:50:12;;;;;;;;;;;3.50;99.90;;;;;;5051710;28;19925;-48
2021/12/13 02:52:39;;;;;;;;;;;3.40;99.90;;;;;;5051321;28;20409;-47
2021/12/13 02:55:08;;;;;;;;;;;3.40;99.90;;;;;;5051558;28;19925;-48
2021/12/13 02:57:38;;;;;;;;;;;3.60;99.90;;;;;;5051499;28;19950;-48
2021/12/13 03:00:09;;;;;;;;;;;3.70;99.90;;;;;;5051601;28;19994;-47
2021/12/13 03:02:37;;;;;;;;;;;3.80;99.90;;;;;;5051171;28;19971;-48
2021/12/13 03:05:06;;;;;;;;;;;3.80;99.90;;;;;;5051435;28;19971;-48
2021/12/13 03:07:34;;;;;;;;;;;3.90;99.90;;;;;;5051171;28;20453;-48
2021/12/13 03:10:04;;;;;;;;;;;3.90;99.90;;;;;;5051404;28;20426;-48
2021/12/13 03:12:31;;;;;;;;;;;3.90;99.90;;;;;;5050731;28;19925;-48
2021/12/13 03:15:00;;;;;;;;;;;3.90;99.90;;;;;;5049802;28;19995;-48
2021/12/13 03:17:30;;;;;;;;;;;3.90;99.90;;;;;;5053558;28;20011;-47
2021/12/13 03:20:14;;;;;;;;;;;3.70;99.90;;;;;;5038168;28;19964;-47
2021/12/13 03:22:58;;;;;;;;;;;3.80;99.90;;;;;;5050320;28;20428;-47
2021/12/13 03:25:28;;;;;;;;;;;3.80;99.90;;;;;;5051099;28;20409;-48
2021/12/13 03:28:11;;;;;;;;;;;3.90;99.90;;;;;;5045526;28;20227;-48
2021/12/13 03:30:44;;;;;;;;;;;3.80;99.90;;;;;;5050772;28;19925;-48
2021/12/13 03:33:12;;;;;;;;;;;3.90;99.90;;;;;;5046598;28;20337;-48
2021/12/13 03:35:41;;;;;;;;;;;3.90;99.90;;;;;;5059696;28;19929;-48
2021/12/13 03:38:11;;;;;;;;;;;3.90;99.90;;;;;;5053551;28;19990;-48
2021/12/13 03:40:39;;;;;;;;;;;3.90;99.90;;;;;;5051915;28;19924;-48
2021/12/13 03:43:08;;;;;;;;;;;3.80;99.90;;;;;;5053853;28;20007;-48
2021/12/13 03:45:37;;;;;;;;;;;3.70;99.90;;;;;;5054706;28;20031;-47
2021/12/13 03:48:07;;;;;;;;;;;3.70;99.90;;;;;;5054115;28;19968;-47
2021/12/13 03:50:35;;;;;;;;;;;3.80;99.90;;;;;;5053828;28;19982;-47
2021/12/13 03:53:03;;;;;;;;;;;3.90;99.90;;;;;;5045428;28;19928;-47
2021/12/13 03:55:32;;;;;;;;;;;3.90;99.90;;;;;;5046214;28;19925;-48
2021/12/13 03:58:01;;;;;;;;;;;4.00;99.90;;;;;;5052893;28;20286;-48
2021/12/13 04:00:30;;;;;;;;;;;4.00;99.90;;;;;;5054085;28;20275;-47
2021/12/13 04:02:59;;;;;;;;;;;3.90;99.90;;;;;;5053946;28;19924;-47
2021/12/13 04:05:28;;;;;;;;;;;3.90;99.90;;;;;;5054342;28;19933;-48
2021/12/13 04:07:56;;;;;;;;;;;3.90;99.90;;;;;;5054427;28;20019;-48
2021/12/13 04:10:24;;;;;;;;;;;4.00;99.90;;;;;;5054198;28;20452;-48
2021/12/13 04:12:54;;;;;;;;;;;4.00;99.90;;;;;;5054142;28;19951;-47
2021/12/13 04:15:26;;;;;;;;;;;3.90;99.90;;;;;;5053809;28;19931;-48
2021/12/13 04:18:01;;;;;;;;;;;4.00;99.90;;;;;;5046044;28;19929;-47
2021/12/13 04:20:31;;;;;;;;;;;4.00;99.90;;;;;;5056900;28;19924;-47
2021/12/13 04:23:00;;;;;;;;;;;3.60;99.90;;;;;;5054037;28;19924;-47
2021/12/13 04:25:30;;;;;;;;;;;3.50;99.90;;;;;;5054120;28;19929;-48
2021/12/13 04:27:59;;;;;;;;;;;3.40;99.90;;;;;;5040293;28;19996;-47
2021/12/13 04:30:28;;;;;;;;;;;3.40;99.90;;;;;;5052570;28;19925;-47
2021/12/13 04:32:57;;;;;;;;;;;3.40;99.90;;;;;;5063898;28;19928;-47
2021/12/13 04:35:25;;;;;;;;;;;3.20;99.90;;;;;;5033912;28;20399;-47
2021/12/13 04:37:56;;;;;;;;;;;3.20;99.90;;;;;;5044329;28;19982;-47
2021/12/13 04:40:25;;;;;;;;;;;3.10;99.90;;;;;;5059341;28;20626;-47
2021/12/13 04:42:55;;;;;;;;;;;3.10;99.90;;;;;;5064265;28;19925;-47
2021/12/13 04:45:23;;;;;;;;;;;3.30;99.90;;;;;;5052939;28;19925;-47
2021/12/13 04:47:57;;;;;;;;;;;3.40;99.90;;;;;;5053479;28;19968;-47
2021/12/13 04:50:25;;;;;;;;;;;3.40;99.90;;;;;;5053544;28;19924;-47
2021/12/13 04:52:54;;;;;;;;;;;3.60;99.90;;;;;;5053126;28;19925;-47
2021/12/13 04:55:23;;;;;;;;;;;3.60;99.90;;;;;;5053698;28;19971;-47
2021/12/13 04:57:51;;;;;;;;;;;3.40;99.90;;;;;;5053600;28;19987;-47
2021/12/13 05:00:20;;;;;;;;;;;3.30;99.90;;;;;;5057858;28;20367;-47
2021/12/13 05:02:49;;;;;;;;;;;3.20;99.90;;;;;;5052936;28;19978;-47
2021/12/13 05:05:17;;;;;;;;;;;3.10;99.90;;;;;;5053063;28;20394;-47
2021/12/13 05:07:45;;;;;;;;;;;3.10;99.90;;;;;;5055280;28;19929;-47
2021/12/13 05:10:14;;;;;;;;;;;3.10;99.90;;;;;;5054822;28;19924;-47
2021/12/13 05:12:42;;;;;;;;;;;3.20;99.90;;;;;;5057399;28;20439;-47
2021/12/13 05:15:10;;;;;;;;;;;3.40;99.90;;;;;;5072969;28;20370;-47
2021/12/13 05:17:39;;;;;;;;;;;3.50;99.90;;;;;;5066287;28;19995;-47
2021/12/13 05:20:11;;;;;;;;;;;3.60;99.90;;;;;;5042203;28;20181;-47
2021/12/13 05:22:47;;;;;;;;;;;3.60;99.90;;;;;;5034484;28;19929;-47
2021/12/13 05:25:21;;;;;;;;;;;3.70;99.90;;;;;;5053117;28;19975;-47
2021/12/13 05:27:57;;;;;;;;;;;3.50;99.90;;;;;;5053150;28;19928;-47
2021/12/13 05:30:24;;;;;;;;;;;3.50;99.90;;;;;;5052829;28;19989;-47
2021/12/13 05:32:52;;;;;;;;;;;3.60;99.90;;;;;;5045253;28;20003;-47
2021/12/13 05:35:21;;;;;;;;;;;3.60;99.90;;;;;;5041657;28;19924;-47
2021/12/13 05:37:49;;;;;;;;;;;3.50;99.90;;;;;;5032902;28;19925;-47
2021/12/13 05:40:20;;;;;;;;;;;3.50;99.90;;;;;;5032838;28;19924;-47
2021/12/13 05:42:49;;;;;;;;;;;3.50;99.90;;;;;;5059049;22;20336;-47
2021/12/13 05:45:17;;;;;;;;;;;3.60;99.90;;;;;;5072114;28;19944;-45
2021/12/13 05:47:54;;;;;;;;;;;3.70;99.90;;;;;;5072813;28;19940;-45
2021/12/13 05:50:26;;;;;;;;;;;3.80;99.90;;;;;;5072750;28;19978;-46
2021/12/13 05:53:00;;;;;;;;;;;3.80;99.90;;;;;;5072354;28;20114;-46
2021/12/13 05:55:28;;;;;;;;;;;3.80;99.90;;;;;;5064452;28;19982;-46
2021/12/13 05:57:56;;;;;;;;;;;3.90;99.90;;;;;;5051669;28;19979;-46
2021/12/13 06:00:24;;;;;;;;;;;3.50;99.90;;;;;;5062058;28;19925;-46
2021/12/13 06:03:01;;;;;;;;;;;3.30;99.90;;;;;;5072275;28;19924;-46
2021/12/13 06:05:30;;;;;;;;;;;3.40;99.90;;;;;;5072400;28;19967;-47
2021/12/13 06:07:58;;;;;;;;;;;3.60;99.90;;;;;;5072306;28;19925;-46
2021/12/13 06:10:27;;;;;;;;;;;3.70;99.90;;;;;;5072515;28;19929;-45
2021/12/13 06:12:55;;;;;;;;;;;3.80;99.90;;;;;;5069488;28;20347;-47
2021/12/13 06:15:28;;;;;;;;;;;3.80;99.90;;;;;;5072332;28;19924;-46
2021/12/13 06:18:08;;;;;;;;;;;3.70;99.90;;;;;;5072241;28;19947;-47
2021/12/13 06:20:39;;;;;;;;;;;3.50;99.90;;;;;;5074500;28;20380;-47
2021/12/13 06:23:07;;;;;;;;;;;3.60;99.90;;;;;;5092287;28;19924;-46
2021/12/13 06:25:34;;;;;;;;;;;3.70;99.90;;;;;;5092449;28;19932;-46
2021/12/13 06:28:01;;;;;;;;;;;3.70;99.90;;;;;;5092340;28;19977;-46
2021/12/13 06:30:30;;;;;;;;;;;3.70;99.90;;;;;;5062729;28;20020;-46
2021/12/13 06:32:58;;;;;;;;;;;3.80;99.90;;;;;;5070649;28;20351;-45
2021/12/13 06:35:34;;;;;;;;;;;3.90;99.90;;;;;;5065986;28;19932;-46
2021/12/13 06:38:22;;;;;;;;;;;4.00;99.90;;;;;;5052369;28;19924;-46
2021/12/13 06:40:50;;;;;;;;;;;4.00;99.90;;;;;;5051976;28;19925;-45
2021/12/13 06:43:25;;;;;;;;;;;3.90;99.90;;;;;;5052403;28;20386;-47
2021/12/13 06:45:53;;;;;;;;;;;3.80;99.90;;;;;;5060639;28;19978;-47
2021/12/13 06:48:32;;;;;;;;;;;3.90;99.90;;;;;;5062971;28;19924;-46
2021/12/13 06:50:59;;;;;;;;;;;3.90;99.90;;;;;;5068022;28;20305;-47
2021/12/13 06:53:25;;;;;;;;;;;3.80;99.90;;;;;;5071797;28;19931;-46
2021/12/13 06:55:52;;;;;;;;;;;3.70;99.90;;;;;;5070903;28;19925;-46
2021/12/13 06:58:21;;;;;;;;;;;3.60;99.90;;;;;;5071789;28;19928;-47
2021/12/13 07:00:51;;;;;;;;;;;3.50;99.90;;;;;;5071345;28;19932;-47
2021/12/13 07:03:21;;;;;;;;;;;3.50;99.90;;;;;;5064755;28;19979;-46
2021/12/13 07:05:48;;;;;;;;;;;3.70;99.90;;;;;;5051647;28;19925;-47
2021/12/13 07:08:19;;;;;;;;;;;3.80;99.90;;;;;;5065911;28;20030;-46
2021/12/13 07:10:47;;;;;;;;;;;3.90;99.90;;;;;;5075920;28;19925;-46
2021/12/13 07:13:22;;;;;;;;;;;3.90;99.90;;;;;;5075485;28;19924;-46
2021/12/13 07:15:50;;;;;;;;;;;4.00;99.90;;;;;;5075592;28;20348;-47
2021/12/13 07:18:18;;;;;;;;;;;4.00;99.90;;;;;;5075607;28;19928;-46
2021/12/13 07:20:48;;;;;;;;;;;3.90;99.90;;;;;;5066316;28;19931;-46
2021/12/13 07:23:15;;;;;;;;;;;4.00;99.90;;;;;;5095694;28;19997;-46
2021/12/13 07:25:43;;;;;;;;;;;4.00;99.90;;;;;;5095914;28;19924;-47
2021/12/13 07:28:10;;;;;;;;;;;4.10;99.90;;;;;;5095696;28;20343;-47
2021/12/13 07:30:39;;;;;;;;;;;4.10;99.90;;;;;;5095558;28;19977;-46
2021/12/13 07:33:07;;;;;;;;;;;4.10;99.90;;;;;;5086025;28;20443;-46
2021/12/13 07:35:35;;;;;;;;;;;4.10;99.90;;;;;;5074806;28;19932;-46
2021/12/13 07:38:04;;;;;;;;;;;4.20;99.90;;;;;;5074100;28;19924;-48
2021/12/13 07:40:37;;;;;;;;;;;4.30;99.90;;;;;;5093018;28;19993;-47
2021/12/13 07:43:21;;;;;;;;;;;4.30;99.90;;;;;;5094002;28;19935;-47
2021/12/13 07:45:52;;;;;;;;;;;4.40;99.90;;;;;;5089252;28;19925;-48
2021/12/13 07:48:20;;;;;;;;;;;4.50;99.90;;;;;;5075164;28;19964;-48
2021/12/13 07:50:56;;;;;;;;;;;4.50;99.90;;;;;;5074999;28;19924;-47
2021/12/13 07:53:26;;;;;;;;;;;4.60;99.90;;;;;;5075024;28;19928;-47
2021/12/13 07:55:56;;;;;;;;;;;4.60;99.90;;;;;;5075794;28;19924;-47
2021/12/13 07:58:33;;;;;;;;;;;4.70;99.90;;;;;;5083912;28;20389;-48
2021/12/13 08:01:07;;;;;;;;;;;4.70;99.90;;;;;;5074265;28;19970;-47
2021/12/13 08:03:34;;;;;;;;;;;4.70;99.90;;;;;;5058873;28;19994;-48
2021/12/13 08:06:06;;;;;;;;;;;4.70;99.90;;;;;;5074498;28;19970;-48
2021/12/13 08:08:35;;;;;;;;;;;4.80;99.90;;;;;;5074760;28;19924;-47
2021/12/13 08:11:02;;;;;;;;;;;4.90;99.90;;;;;;5074671;28;19935;-48
2021/12/13 08:13:30;;;;;;;;;;;5.00;99.90;;;;;;5074371;28;19994;-47
2021/12/13 08:16:01;;;;;;;;;;;5.00;99.90;;;;;;5073924;28;20282;-47
2021/12/13 08:18:30;;;;;;;;;;;5.10;99.90;;;;;;5073909;28;19946;-47
2021/12/13 08:21:01;;;;;;;;;;;5.10;99.90;;;;;;5069587;28;19925;-47
2021/12/13 08:23:31;;;;;;;;;;;5.30;99.90;;;;;;5073500;28;20003;-47
2021/12/13 08:26:00;;;;;;;;;;;5.30;99.90;;;;;;5063518;28;19932;-47
2021/12/13 08:28:36;;;;;;;;;;;5.30;99.90;;;;;;5073778;28;20352;-48
2021/12/13 08:31:05;;;;;;;;;;;5.20;99.90;;;;;;5072884;28;19969;-47
2021/12/13 08:33:33;;;;;;;;;;;5.20;99.90;;;;;;5073601;28;19924;-48
2021/12/13 08:36:02;;;;;;;;;;;5.20;99.90;;;;;;5070667;28;19925;-47
2021/12/13 08:38:37;;;;;;;;;;;5.30;99.90;;;;;;5070453;28;19925;-48
2021/12/13 08:41:08;;;;;;;;;;;5.30;99.90;;;;;;5093964;28;19924;-48
2021/12/13 08:43:37;;;;;;;;;;;5.30;99.90;;;;;;5072297;28;20393;-47
2021/12/13 08:46:05;;;;;;;;;;;5.50;99.90;;;;;;5073730;28;19962;-47
2021/12/13 08:48:31;;;;;;;;;;;5.50;99.90;;;;;;5073755;28;20023;-48
2021/12/13 08:50:59;;;;;;;;;;;5.50;99.90;;;;;;5073292;28;20611;-48
2021/12/13 08:53:29;;;;;;;;;;;5.50;99.90;;;;;;5073207;28;20207;-47
2021/12/13 08:55:57;;;;;;;;;;;5.50;99.90;;;;;;5064971;28;19971;-47
2021/12/13 08:58:25;;;;;;;;;;;5.40;99.90;;;;;;5073536;28;19924;-47
2021/12/13 09:00:59;;;;;;;;;;;5.40;99.90;;;;;;5073088;28;20301;-48
2021/12/13 09:03:37;;;;;;;;;;;5.50;99.90;;;;;;5072856;28;20457;-49
2021/12/13 09:06:19;;;;;;;;;;;5.60;99.90;;;;;;5067977;28;19933;-47
2021/12/13 09:08:47;;;;;;;;;;;5.70;99.90;;;;;;5069151;28;19924;-49
2021/12/13 09:11:18;;;;;;;;;;;5.60;99.90;;;;;;5060797;28;19928;-48
2021/12/13 09:13:49;;;;;;;;;;;5.40;99.90;;;;;;5073278;28;20001;-47
2021/12/13 09:16:20;;;;;;;;;;;5.50;99.90;;;;;;5084822;28;19931;-48
2021/12/13 09:18:47;;;;;;;;;;;5.80;99.90;;;;;;5073333;28;19928;-48
2021/12/13 09:21:17;;;;;;;;;;;5.80;99.90;;;;;;5071062;28;20377;-48
2021/12/13 09:23:46;;;;;;;;;;;6.00;99.90;;;;;;5072566;28;19932;-48
2021/12/13 09:26:14;;;;;;;;;;;6.10;99.90;;;;;;5072925;28;19978;-48
2021/12/13 09:28:44;;;;;;;;;;;5.90;99.90;;;;;;5072997;28;19924;-48
2021/12/13 09:31:14;;;;;;;;;;;5.90;99.90;;;;;;5072769;28;20051;-48
2021/12/13 09:33:42;;;;;;;;;;;6.00;99.90;;;;;;5072587;28;19925;-48
2021/12/13 09:36:10;;;;;;;;;;;6.00;99.90;;;;;;5072513;28;19932;-48
2021/12/13 09:38:39;;;;;;;;;;;6.10;99.90;;;;;;5071908;28;19928;-48
2021/12/13 09:41:17;;;;;;;;;;;6.10;99.90;;;;;;5052144;28;20459;-48
2021/12/13 09:43:47;;;;;;;;;;;5.90;99.90;;;;;;5052732;28;19925;-48
2021/12/13 09:46:19;;;;;;;;;;;5.60;99.90;;;;;;5060505;28;19968;-49
2021/12/13 09:48:47;;;;;;;;;;;5.70;99.90;;;;;;5072418;28;20322;-48
2021/12/13 09:51:17;;;;;;;;;;;5.90;99.90;;;;;;5072267;28;20271;-48
2021/12/13 09:53:43;;;;;;;;;;;5.90;99.90;;;;;;5071996;28;19936;-49
2021/12/13 09:56:12;;;;;;;;;;;6.10;99.90;;;;;;5060590;28;20455;-48
2021/12/13 09:58:41;;;;;;;;;;;6.10;99.90;;;;;;5070836;28;19985;-48
2021/12/13 10:01:12;;;;;;;;;;;6.40;99.90;;;;;;5070869;28;19928;-48
2021/12/13 10:03:46;;;;;;;;;;;6.70;99.90;;;;;;5072529;28;19925;-48
2021/12/13 10:06:13;;;;;;;;;;;7.00;99.90;;;;;;5072240;28;20340;-49
2021/12/13 10:08:42;;;;;;;;;;;7.00;99.90;;;;;;5072417;28;20375;-48
2021/12/13 10:11:10;;;;;;;;;;;7.40;99.90;;;;;;5072256;28;20347;-49
2021/12/13 10:13:39;;;;;;;;;;;7.80;99.90;;;;;;5071632;28;19928;-48
2021/12/13 10:16:08;;;;;;;;;;;8.40;99.90;;;;;;5069079;28;19924;-46
2021/12/13 10:18:35;;;;;;;;;;;8.60;99.90;;;;;;5072149;28;19966;-44
2021/12/13 10:21:06;;;;;;;;;;;8.30;99.90;;;;;;5071905;28;20378;-46
2021/12/13 10:23:35;;;;;;;;;;;7.50;99.90;;;;;;5071940;28;19928;-47
2021/12/13 10:26:06;;;;;;;;;;;7.40;99.90;;;;;;5071993;28;19924;-46
2021/12/13 10:28:34;;;;;;;;;;;7.80;99.90;;;;;;5072087;28;19928;-47
2021/12/13 10:31:04;;;;;;;;;;;8.20;99.90;;;;;;5072060;28;19992;-49
2021/12/13 10:33:31;;;;;;;;;;;8.00;99.90;;;;;;5071994;28;19924;-46
2021/12/13 10:36:01;;;;;;;;;;;7.50;99.90;;;;;;5071928;28;20275;-47
2021/12/13 10:38:31;;;;;;;;;;;7.30;99.90;;;;;;5071150;28;20007;-47
2021/12/13 10:41:00;;;;;;;;;;;7.30;99.90;;;;;;5052112;28;19932;-46
2021/12/13 10:43:29;;;;;;;;;;;7.10;99.90;;;;;;5061692;28;19929;-47
2021/12/13 10:45:57;;;;;;;;;;;7.20;99.90;;;;;;5056198;28;19978;-47
2021/12/13 10:48:27;;;;;;;;;;;7.30;99.90;;;;;;5071619;28;19924;-47
2021/12/13 10:50:58;;;;;;;;;;;7.10;99.90;;;;;;5050389;28;19968;-48
2021/12/13 10:53:26;;;;;;;;;;;7.00;99.90;;;;;;5067559;28;20008;-47
2021/12/13 10:56:01;;;;;;;;;;;6.90;99.90;;;;;;5071633;28;20390;-46
2021/12/13 10:58:29;;;;;;;;;;;6.80;99.90;;;;;;5071342;28;19938;-48
2021/12/13 11:00:59;;;;;;;;;;;6.70;99.90;;;;;;5071032;28;20397;-48
2021/12/13 11:03:27;;;;;;;;;;;6.90;99.90;;;;;;5071218;28;19978;-47
2021/12/13 11:05:55;;;;;;;;;;;7.10;99.90;;;;;;5070927;28;21667;-47
2021/12/13 11:08:23;;;;;;;;;;;7.00;99.90;;;;;;5071565;28;19924;-46
2021/12/13 11:10:51;;;;;;;;;;;6.90;99.90;;;;;;5071169;28;20010;-48
2021/12/13 11:13:20;;;;;;;;;;;7.20;99.90;;;;;;5071076;28;19940;-47
2021/12/13 11:15:48;;;;;;;;;;;7.50;99.90;;;;;;5085120;28;19947;-47
2021/12/13 11:18:26;;;;;;;;;;;7.70;99.90;;;;;;5071285;28;19924;-47
2021/12/13 11:20:53;;;;;;;;;;;7.70;99.90;;;;;;5066873;28;19925;-50
2021/12/13 11:23:21;;;;;;;;;;;7.90;99.90;;;;;;5066827;28;19939;-50
2021/12/13 11:25:50;;;;;;;;;;;8.00;99.90;;;;;;5071150;28;19928;-48
2021/12/13 11:28:17;;;;;;;;;;;8.10;99.90;;;;;;5070187;28;20397;-48
2021/12/13 11:30:46;;;;;;;;;;;8.10;99.90;;;;;;5071141;28;20378;-47
2021/12/13 11:33:42;;;;;;;;;;;8.10;99.90;;;;;;5071002;28;20462;-48
2021/12/13 11:36:32;;;;;;;;;;;8.20;99.90;;;;;;5071166;28;20035;-50
2021/12/13 11:39:13;;;;;;;;;;;8.40;99.90;;;;;;5031098;28;19929;-48
2021/12/13 11:41:59;;;;;;;;;;;8.70;99.90;;;;;;5054550;28;19978;-48
2021/12/13 11:44:36;;;;;;;;;;;8.80;99.90;;;;;;5097312;22;20294;-50
2021/12/13 11:47:21;;;;;;;;;;;9.00;99.90;;;;;;5091692;28;19951;-50
2021/12/13 11:49:59;;;;;;;;;;;9.10;99.90;;;;;;5085936;28;20339;-50
2021/12/13 11:52:44;;;;;;;;;;;9.10;99.90;;;;;;5070338;28;19924;-50
2021/12/13 11:55:23;;;;;;;;;;;9.10;99.90;;;;;;5049844;28;20456;-50
2021/12/13 11:58:09;;;;;;;;;;;9.20;99.90;;;;;;5064921;28;20035;-49
2021/12/13 12:00:43;;;;;;;;;;;9.00;99.90;;;;;;5053483;28;20374;-50
2021/12/13 12:03:34;;;;;;;;;;;8.90;99.90;;;;;;5054529;28;20451;-50
2021/12/13 12:06:18;;;;;;;;;;;9.00;99.90;;;;;;4980582;28;19926;-49
2021/12/13 12:09:04;;;;;;;;;;;9.00;99.90;;;;;;5021296;28;19925;-50
2021/12/13 12:11:44;;;;;;;;;;;9.10;99.90;;;;;;5034550;28;19933;-50
2021/12/13 12:14:12;;;;;;;;;;;9.10;99.90;;;;;;5043987;28;19924;-50
2021/12/13 12:16:40;;;;;;;;;;;8.90;99.90;;;;;;5054418;28;19947;-49
2021/12/13 12:19:09;;;;;;;;;;;8.50;99.90;;;;;;5054718;28;19948;-50
2021/12/13 12:21:42;;;;;;;;;;;8.60;99.90;;;;;;5054266;28;19928;-49
2021/12/13 12:24:12;;;;;;;;;;;8.70;99.90;;;;;;5046840;28;19926;-50
2021/12/13 12:26:40;;;;;;;;;;;8.80;99.90;;;;;;5043738;28;19978;-50
2021/12/13 12:29:09;;;;;;;;;;;8.80;99.90;;;;;;5054172;28;19929;-50
2021/12/13 12:31:38;;;;;;;;;;;8.80;99.90;;;;;;5049650;28;19926;-50
2021/12/13 12:34:06;;;;;;;;;;;8.50;99.90;;;;;;5061826;28;19978;-50
2021/12/13 12:36:41;;;;;;;;;;;8.20;99.90;;;;;;5074236;28;19924;-50
2021/12/13 12:39:26;;;;;;;;;;;8.20;99.90;;;;;;5049504;28;19982;-49
2021/12/13 12:42:03;;;;;;;;;;;8.00;99.90;;;;;;5047636;28;19986;-50
2021/12/13 12:44:32;;;;;;;;;;;8.00;99.90;;;;;;5041681;28;20711;-50
2021/12/13 12:47:00;;;;;;;;;;;7.90;99.90;;;;;;5044816;28;19994;-50
2021/12/13 12:49:28;;;;;;;;;;;7.80;99.90;;;;;;5073522;28;19934;-49
2021/12/13 12:52:01;;;;;;;;;;;7.80;99.90;;;;;;5073724;28;19925;-50
2021/12/13 12:54:28;;;;;;;;;;;7.70;99.90;;;;;;5073884;28;20419;-50
2021/12/13 12:56:58;;;;;;;;;;;7.80;99.90;;;;;;5059489;28;19924;-49
2021/12/13 12:59:26;;;;;;;;;;;7.80;99.90;;;;;;5035379;28;19951;-49
2021/12/13 13:01:56;;;;;;;;;;;7.80;99.90;;;;;;5033451;28;19929;-49
2021/12/13 13:04:24;;;;;;;;;;;7.90;99.90;;;;;;5033980;28;19925;-50
2021/12/13 13:06:56;;;;;;;;;;;7.90;99.90;;;;;;5033158;28;20379;-50
2021/12/13 13:09:23;;;;;;;;;;;8.00;99.90;;;;;;5033792;28;19968;-49
2021/12/13 13:11:51;;;;;;;;;;;7.90;99.90;;;;;;5033504;28;19929;-50
2021/12/13 13:14:22;;;;;;;;;;;7.90;99.90;;;;;;5038652;28;19982;-50
2021/12/13 13:16:51;;;;;;;;;;;7.90;99.90;;;;;;5033523;28;20020;-51
2021/12/13 13:19:29;;;;;;;;;;;8.00;99.90;;;;;;5033365;28;19929;-51
2021/12/13 13:21:57;;;;;;;;;;;8.00;99.90;;;;;;5054304;28;20398;-50
2021/12/13 13:24:24;;;;;;;;;;;8.00;99.90;;;;;;5047869;28;19975;-50
2021/12/13 13:26:50;;;;;;;;;;;8.10;99.90;;;;;;5052862;28;19978;-50
2021/12/13 13:29:19;;;;;;;;;;;7.90;99.90;;;;;;5045776;28;19925;-50
2021/12/13 13:31:50;;;;;;;;;;;7.90;99.90;;;;;;5035472;28;19930;-50
2021/12/13 13:34:18;;;;;;;;;;;7.90;99.90;;;;;;5052192;28;20328;-50
2021/12/13 13:36:47;;;;;;;;;;;7.90;99.90;;;;;;5053094;28;20402;-50
2021/12/13 13:39:16;;;;;;;;;;;7.90;99.90;;;;;;5050618;28;19924;-50
2021/12/13 13:41:44;;;;;;;;;;;7.90;99.90;;;;;;5053997;28;19931;-50
2021/12/13 13:44:12;;;;;;;;;;;8.00;99.90;;;;;;5041826;28;19973;-50
2021/12/13 13:46:39;;;;;;;;;;;8.00;99.90;;;;;;5038989;28;19975;-50
2021/12/13 13:49:07;;;;;;;;;;;8.00;99.90;;;;;;5048455;28;19928;-50
2021/12/13 13:51:35;;;;;;;;;;;7.90;99.90;;;;;;5058223;28;19925;-50
2021/12/13 13:54:02;;;;;;;;;;;7.90;99.90;;;;;;5059492;28;19925;-50
2021/12/13 13:56:32;;;;;;;;;;;7.80;99.90;;;;;;5053303;28;19935;-50
2021/12/13 13:59:01;;;;;;;;;;;7.90;99.90;;;;;;5035684;28;19929;-50
2021/12/13 14:01:30;;;;;;;;;;;8.00;99.90;;;;;;5035283;28;19987;-50
2021/12/13 14:03:58;;;;;;;;;;;8.00;99.90;;;;;;5035594;28;19979;-50
2021/12/13 14:06:33;;;;;;;;;;;7.90;99.90;;;;;;5045777;28;19940;-50
2021/12/13 14:09:02;;;;;;;;;;;7.90;99.90;;;;;;5049675;28;19936;-50
2021/12/13 14:11:29;;;;;;;;;;;7.80;99.90;;;;;;5035380;28;20460;-50
2021/12/13 14:13:59;;;;;;;;;;;7.70;99.90;;;;;;5039111;28;19925;-50
2021/12/13 14:16:28;;;;;;;;;;;7.70;99.90;;;;;;5053794;28;19925;-50
2021/12/13 14:18:55;;;;;;;;;;;7.70;99.90;;;;;;5051777;28;19959;-50
2021/12/13 14:21:26;;;;;;;;;;;7.80;99.90;;;;;;5052015;28;19998;-50
2021/12/13 14:23:55;;;;;;;;;;;7.80;99.90;;;;;;5049810;28;20502;-50
2021/12/13 14:26:23;;;;;;;;;;;7.90;99.90;;;;;;5058345;28;19955;-50
2021/12/13 14:28:52;;;;;;;;;;;7.80;99.90;;;;;;5042740;28;20026;-50
2021/12/13 14:31:20;;;;;;;;;;;7.80;99.90;;;;;;5049822;28;19951;-50
2021/12/13 14:33:49;;;;;;;;;;;7.80;99.90;;;;;;5061631;28;19932;-50
2021/12/13 14:36:17;;;;;;;;;;;7.70;99.90;;;;;;5071800;28;19925;-50
2021/12/13 14:38:45;;;;;;;;;;;7.70;99.90;;;;;;5054442;28;20456;-50
2021/12/13 14:41:15;;;;;;;;;;;7.70;99.90;;;;;;5035264;28;19925;-49
2021/12/13 14:43:46;;;;;;;;;;;7.70;99.90;;;;;;5036193;28;19925;-50
2021/12/13 14:46:15;;;;;;;;;;;7.70;99.90;;;;;;5052209;28;19971;-51
2021/12/13 14:48:42;;;;;;;;;;;7.70;99.90;;;;;;5052101;28;19974;-50
2021/12/13 14:51:11;;;;;;;;;;;7.60;99.90;;;;;;5032822;28;20006;-50
2021/12/13 14:53:39;;;;;;;;;;;7.70;99.90;;;;;;5039454;28;19925;-50